TimeCDT,TemperatureF,Dew PointF,Humidity,Sea Level PressureIn,VisibilityMPH,Wind Direction,Wind SpeedMPH,Gust SpeedMPH,PrecipitationIn,Events,Conditions,WindDirDegrees,DateUTC
12:13 AM,26.6,24.8,93,29.87,10.0,North,16.1,24.2,N/A,,Overcast,360,2013-03-10 06:13:00
12:32 AM,26.6,24.8,93,29.88,10.0,North,17.3,-,N/A,,Overcast,360,2013-03-10 06:32:00
12:52 AM,26.6,23.0,86,29.88,10.0,North,19.6,-,N/A,,Overcast,360,2013-03-10 06:52:00
1:13 AM,26.6,23.0,86,29.90,10.0,North,18.4,24.2,N/A,,Overcast,360,2013-03-10 07:13:00
1:32 AM,26.6,23.0,86,29.92,10.0,North,17.3,-,N/A,,Overcast,360,2013-03-10 07:32:00
1:53 AM,26.6,23.0,86,29.93,10.0,North,16.1,20.7,N/A,,Overcast,360,2013-03-10 07:53:00
3:13 AM,24.8,23.0,93,29.92,10.0,North,19.6,23.0,N/A,,Overcast,360,2013-03-10 08:13:00
3:32 AM,24.8,21.2,86,29.91,10.0,North,23.0,28.8,N/A,,Overcast,360,2013-03-10 08:32:00
3:53 AM,24.8,21.2,86,29.90,10.0,North,20.7,26.5,N/A,,Overcast,360,2013-03-10 08:53:00
4:13 AM,24.8,21.2,86,29.91,10.0,North,18.4,-,N/A,,Overcast,360,2013-03-10 09:13:00
4:32 AM,24.8,21.2,86,29.92,10.0,North,17.3,-,N/A,,Overcast,360,2013-03-10 09:32:00
4:53 AM,24.8,21.2,86,29.92,10.0,North,15.0,-,N/A,,Overcast,360,2013-03-10 09:53:00
5:13 AM,24.8,21.2,86,29.92,10.0,North,17.3,23.0,N/A,,Overcast,360,2013-03-10 10:13:00
5:32 AM,24.8,21.2,86,29.94,10.0,North,12.7,-,N/A,,Overcast,360,2013-03-10 10:32:00
5:53 AM,24.8,21.2,86,29.96,10.0,North,13.8,19.6,N/A,,Overcast,360,2013-03-10 10:53:00
6:12 AM,24.8,21.2,86,29.95,10.0,North,15.0,-,N/A,,Overcast,360,2013-03-10 11:12:00
7:33 AM,24.8,21.2,86,29.96,7.0,North,20.7,26.5,N/A,,Overcast,360,2013-03-10 12:33:00
7:53 AM,24.8,21.2,86,29.99,7.0,North,17.3,25.3,N/A,,Overcast,360,2013-03-10 12:53:00
8:12 AM,24.8,21.2,86,30.03,7.0,North,12.7,23.0,N/A,,Overcast,360,2013-03-10 13:12:00
8:33 AM,24.8,21.2,86,30.05,10.0,North,12.7,18.4,N/A,,Overcast,360,2013-03-10 13:33:00
8:53 AM,24.8,21.2,86,30.05,10.0,North,18.4,-,N/A,,Overcast,360,2013-03-10 13:53:00
9:12 AM,24.8,21.2,86,30.05,10.0,North,15.0,-,N/A,,Overcast,360,2013-03-10 14:12:00
9:33 AM,23.0,21.2,93,30.04,10.0,North,18.4,24.2,N/A,,Overcast,360,2013-03-10 14:33:00
9:53 AM,23.0,19.4,86,30.04,10.0,North,17.3,-,N/A,,Overcast,360,2013-03-10 14:53:00
10:12 AM,24.8,21.2,86,30.03,10.0,North,13.8,21.9,N/A,,Overcast,360,2013-03-10 15:12:00
10:33 AM,24.8,21.2,86,30.05,10.0,North,16.1,23.0,N/A,,Overcast,360,2013-03-10 15:33:00
10:53 AM,24.8,21.2,86,30.04,10.0,North,19.6,25.3,N/A,,Overcast,360,2013-03-10 15:53:00
11:12 AM,24.8,21.2,86,30.05,10.0,North,16.1,24.2,N/A,,Overcast,360,2013-03-10 16:12:00
11:33 AM,24.8,21.2,86,30.04,10.0,North,16.1,24.2,N/A,,Overcast,360,2013-03-10 16:33:00
11:52 AM,24.8,21.2,86,30.05,10.0,North,17.3,23.0,N/A,,Overcast,360,2013-03-10 16:52:00
12:12 PM,24.8,21.2,86,30.07,10.0,North,19.6,24.2,N/A,,Overcast,360,2013-03-10 17:12:00
12:33 PM,26.6,21.2,80,30.08,10.0,North,17.3,-,N/A,,Overcast,360,2013-03-10 17:33:00
12:52 PM,26.6,21.2,80,30.06,10.0,North,17.3,26.5,N/A,,Overcast,360,2013-03-10 17:52:00
1:13 PM,26.6,21.2,80,30.05,10.0,North,16.1,25.3,N/A,,Overcast,360,2013-03-10 18:13:00
1:32 PM,26.6,21.2,80,30.04,10.0,North,15.0,24.2,N/A,,Overcast,360,2013-03-10 18:32:00
1:52 PM,26.6,21.2,80,30.03,10.0,North,16.1,-,N/A,,Overcast,360,2013-03-10 18:52:00
2:13 PM,26.6,21.2,80,30.05,10.0,North,15.0,20.7,N/A,,Overcast,360,2013-03-10 19:13:00
2:32 PM,26.6,21.2,80,30.04,10.0,North,17.3,-,N/A,,Overcast,360,2013-03-10 19:32:00
2:52 PM,26.6,21.2,80,30.04,10.0,North,15.0,24.2,N/A,,Overcast,360,2013-03-10 19:52:00
3:13 PM,28.4,21.2,74,30.05,10.0,North,16.1,20.7,N/A,,Overcast,360,2013-03-10 20:13:00
3:32 PM,28.4,21.2,74,30.04,10.0,North,18.4,21.9,N/A,,Overcast,360,2013-03-10 20:32:00
3:53 PM,26.6,21.2,80,30.02,10.0,North,17.3,-,N/A,,Overcast,360,2013-03-10 20:53:00
4:13 PM,26.6,21.2,80,30.01,10.0,North,18.4,23.0,N/A,,Overcast,360,2013-03-10 21:13:00
4:32 PM,26.6,21.2,80,29.99,10.0,North,17.3,24.2,N/A,,Overcast,360,2013-03-10 21:32:00
4:53 PM,26.6,21.2,80,29.99,10.0,North,18.4,24.2,N/A,,Overcast,360,2013-03-10 21:53:00
5:13 PM,26.6,21.2,80,29.99,10.0,North,16.1,19.6,N/A,,Overcast,360,2013-03-10 22:13:00
5:32 PM,26.6,21.2,80,30.01,10.0,North,15.0,21.9,N/A,,Overcast,360,2013-03-10 22:32:00
5:53 PM,23.0,19.4,86,30.01,10.0,North,18.4,-,N/A,,Overcast,360,2013-03-10 22:53:00
6:12 PM,23.0,19.4,86,30.01,10.0,North,15.0,-,N/A,,Overcast,360,2013-03-10 23:12:00
6:32 PM,21.2,19.4,93,30.02,10.0,North,16.1,23.0,N/A,,Overcast,360,2013-03-10 23:32:00
6:53 PM,21.2,19.4,93,30.02,10.0,North,15.0,-,N/A,,Overcast,360,2013-03-10 23:53:00
7:12 PM,21.2,19.4,93,30.02,10.0,North,15.0,18.4,N/A,,Overcast,360,2013-03-11 00:12:00
7:32 PM,21.2,19.4,93,30.01,10.0,North,16.1,20.7,N/A,,Overcast,360,2013-03-11 00:32:00
7:53 PM,21.2,17.6,86,30.00,10.0,North,19.6,25.3,N/A,,Overcast,360,2013-03-11 00:53:00
8:12 PM,19.4,17.6,93,30.00,10.0,North,18.4,24.2,N/A,,Overcast,360,2013-03-11 01:12:00
8:32 PM,19.4,15.8,86,30.01,10.0,North,17.3,-,N/A,,Overcast,360,2013-03-11 01:32:00
8:53 PM,17.6,15.8,93,30.02,10.0,North,18.4,23.0,N/A,,Overcast,360,2013-03-11 01:53:00
9:12 PM,17.6,15.8,93,30.03,10.0,North,13.8,-,N/A,,Overcast,360,2013-03-11 02:12:00
9:33 PM,17.6,15.8,93,30.03,10.0,North,15.0,19.6,N/A,,Overcast,360,2013-03-11 02:33:00
10:12 PM,17.6,15.8,93,30.02,10.0,North,15.0,-,N/A,,Overcast,360,2013-03-11 03:12:00
10:53 PM,15.8,12.2,86,30.01,10.0,North,13.8,-,N/A,,Mostly Cloudy,360,2013-03-11 03:53:00
11:12 PM,15.8,12.2,86,30.00,10.0,North,12.7,-,N/A,,Scattered Clouds,360,2013-03-11 04:12:00
11:33 PM,15.8,12.2,86,29.99,10.0,North,12.7,-,N/A,,Clear,360,2013-03-11 04:33:00
11:53 PM,15.8,12.2,86,29.99,10.0,North,11.5,-,N/A,,Mostly Cloudy,360,2013-03-11 04:53:00
12:12 AM,15.8,12.2,86,29.99,10.0,North,13.8,-,N/A,,Overcast,360,2013-03-11 05:12:00
12:33 AM,15.8,10.4,79,29.98,10.0,North,12.7,-,N/A,,Mostly Cloudy,360,2013-03-11 05:33:00
12:53 AM,14.0,10.4,86,29.98,10.0,North,13.8,-,N/A,,Scattered Clouds,360,2013-03-11 05:53:00